createdAt,value
2023-02-07T00:00:43.450Z,727.2
2023-02-07T00:02:26.800Z,728.2
2023-02-07T00:04:10.215Z,730.3
2023-02-07T00:05:53.600Z,732.7
2023-02-07T00:11:02.833Z,731.9
2023-02-07T00:12:46.241Z,732.5
2023-02-07T00:14:29.672Z,734
2023-02-07T00:16:13.016Z,736.8
2023-02-07T00:17:56.418Z,738.7
2023-02-07T00:19:39.853Z,737.7
2023-02-07T00:21:23.195Z,738.8
2023-02-07T00:23:06.600Z,741.3
2023-02-07T00:28:15.873Z,743.6
2023-02-07T00:29:59.242Z,744.3
2023-02-07T00:31:42.698Z,744.5
2023-02-07T00:33:26.051Z,745.7
2023-02-07T00:35:09.433Z,747.4
2023-02-07T00:36:52.826Z,746
2023-02-07T00:38:36.228Z,746
2023-02-07T00:40:19.648Z,744
2023-02-07T00:45:28.866Z,750.1
2023-02-07T00:47:12.269Z,752.8
2023-02-07T00:48:55.668Z,752.1
2023-02-07T00:50:39.052Z,753.8
2023-02-07T00:52:22.447Z,757.6
2023-02-07T00:54:05.850Z,759.1
2023-02-07T00:55:49.247Z,760.3
2023-02-07T00:57:32.644Z,760.4
2023-02-07T01:02:41.874Z,768.3
2023-02-07T01:04:25.268Z,768.7
2023-02-07T01:06:08.659Z,771.5
2023-02-07T01:07:52.075Z,774.6
2023-02-07T01:09:35.462Z,773.5
2023-02-07T01:11:18.839Z,773.3
2023-02-07T01:13:02.244Z,773.6
2023-02-07T01:14:45.667Z,772.2
2023-02-07T01:19:54.896Z,774.2
2023-02-07T01:21:38.303Z,774.6
2023-02-07T01:23:21.695Z,774.8
2023-02-07T01:25:05.076Z,775.8
2023-02-07T01:26:48.480Z,776.7
2023-02-07T01:28:31.878Z,776.2
2023-02-07T01:30:15.320Z,777
2023-02-07T01:31:58.654Z,778.7
2023-02-07T01:35:25.143Z,784.8
2023-02-07T01:37:08.544Z,784.4
2023-02-07T01:38:51.920Z,786.2
2023-02-07T01:40:35.335Z,788.2
2023-02-07T01:42:18.728Z,791.5
2023-02-07T01:44:02.197Z,793.8
2023-02-07T01:45:45.508Z,793.1
2023-02-07T01:47:28.905Z,796.7
2023-02-07T01:49:12.325Z,797
2023-02-07T01:50:56.015Z,798.9
2023-02-07T01:52:39.420Z,800.4
2023-02-07T01:54:22.804Z,803.4
2023-02-07T01:56:06.196Z,805.2
2023-02-07T01:57:49.597Z,807.1
2023-02-07T01:59:32.998Z,807.4
2023-02-07T02:01:16.396Z,807.7
2023-02-07T02:02:59.807Z,808
2023-02-07T02:08:09.022Z,810.1
2023-02-07T02:09:52.419Z,808.4
2023-02-07T02:11:35.822Z,808.3
2023-02-07T02:13:19.200Z,811.2
2023-02-07T02:15:02.602Z,810.5
2023-02-07T02:16:46.059Z,808.2
2023-02-07T02:18:29.402Z,808.5
2023-02-07T02:20:12.793Z,807.2
2023-02-07T02:25:22.074Z,809.1
2023-02-07T02:27:05.439Z,809.4
2023-02-07T02:28:48.838Z,809.2
2023-02-07T02:30:32.208Z,810.6
2023-02-07T02:32:15.615Z,812.5
2023-02-07T02:33:59.027Z,811.4
2023-02-07T02:35:42.433Z,811.6
2023-02-07T02:37:25.824Z,810.5
2023-02-07T02:42:35.054Z,815.1
2023-02-07T02:44:18.440Z,814.2
2023-02-07T02:46:01.895Z,814.2
2023-02-07T02:47:45.233Z,817.2
2023-02-07T02:49:28.633Z,814.6
2023-02-07T02:51:12.057Z,813
2023-02-07T02:52:55.466Z,812.3
2023-02-07T02:54:38.832Z,815.1
2023-02-07T02:59:48.065Z,818.7
2023-02-07T03:01:31.463Z,819.4
2023-02-07T03:03:14.858Z,817.6
2023-02-07T03:04:58.260Z,818.2
2023-02-07T03:06:41.657Z,819.2
2023-02-07T03:08:25.058Z,819.4
2023-02-07T03:10:08.448Z,820.4
2023-02-07T03:11:51.840Z,824.8
2023-02-07T03:17:01.077Z,834.1
2023-02-07T03:18:44.483Z,833.3
2023-02-07T03:21:02.752Z,832.1
2023-02-07T03:22:25.710Z,833.6
2023-02-07T03:23:54.686Z,833.8
2023-02-07T03:25:38.066Z,832.4
2023-02-07T03:29:09.140Z,828.3
2023-02-07T03:32:31.314Z,827
2023-02-07T03:34:14.826Z,826.2
2023-02-07T03:36:16.982Z,828.3
2023-02-07T03:37:41.524Z,831.8
2023-02-07T03:46:18.495Z,834.6
2023-02-07T03:48:02.201Z,834.1
2023-02-07T03:49:45.600Z,833
2023-02-07T03:51:28.985Z,830.6
2023-02-07T03:53:12.379Z,829.1
2023-02-07T03:54:55.825Z,828.4
2023-02-07T03:56:39.170Z,829.1
2023-02-07T03:58:22.587Z,828.6
2023-02-07T04:00:05.964Z,829.4
2023-02-07T04:01:49.359Z,828.5
2023-02-07T04:05:15.847Z,831.4
2023-02-07T04:06:59.249Z,831
2023-02-07T04:08:42.640Z,833.7
2023-02-07T04:10:26.056Z,834.8
2023-02-07T04:12:09.420Z,834.1
2023-02-07T04:13:52.818Z,830.7
2023-02-07T04:15:36.257Z,829.7
2023-02-07T04:17:19.599Z,832.5
2023-02-07T04:19:03.020Z,836.3
2023-02-07T04:24:12.261Z,843.6
2023-02-07T04:25:55.640Z,842.5
2023-02-07T04:27:39.039Z,843
2023-02-07T04:29:22.444Z,843.6
2023-02-07T04:31:05.826Z,844.3
2023-02-07T04:32:49.228Z,843.7
2023-02-07T04:34:32.631Z,842.6
2023-02-07T04:36:16.013Z,844.6
2023-02-07T04:37:59.422Z,844.7
2023-02-07T04:41:25.890Z,848.6
2023-02-07T04:43:09.279Z,848.2
2023-02-07T04:44:52.681Z,848
2023-02-07T04:46:36.080Z,844.5
2023-02-07T04:48:19.468Z,844.5
2023-02-07T04:50:02.856Z,843.8
2023-02-07T04:51:46.256Z,843.1
2023-02-07T04:53:29.656Z,841.4
2023-02-07T04:55:13.050Z,840.4
2023-02-07T04:58:39.524Z,840.8
2023-02-07T05:00:22.919Z,840.1
2023-02-07T05:02:06.323Z,840.3
2023-02-07T05:03:49.722Z,839.6
2023-02-07T05:05:33.104Z,841
2023-02-07T05:07:16.505Z,842
2023-02-07T05:08:59.899Z,839.7
2023-02-07T05:10:43.298Z,840.4
2023-02-07T05:12:26.695Z,839.6
2023-02-07T05:15:53.172Z,840.5
2023-02-07T05:17:36.573Z,840
2023-02-07T05:19:19.981Z,842.6
2023-02-07T05:21:03.359Z,843.1
2023-02-07T05:22:46.778Z,842.6
2023-02-07T05:24:30.130Z,844.2
2023-02-07T05:26:13.590Z,845.1
2023-02-07T05:27:56.955Z,844.3
2023-02-07T05:33:06.195Z,842.8
2023-02-07T05:34:49.606Z,841.6
2023-02-07T05:36:32.967Z,842
2023-02-07T05:38:16.381Z,840.5
2023-02-07T05:39:59.761Z,840
2023-02-07T05:41:43.194Z,838.3
2023-02-07T05:43:26.565Z,838.6
2023-02-07T05:45:10.057Z,841.4
2023-02-07T05:48:36.438Z,839
2023-02-07T05:50:19.865Z,840.2
2023-02-07T05:52:03.220Z,842.8
2023-02-07T05:53:46.618Z,844.6
2023-02-07T05:55:29.994Z,847.2
2023-02-07T05:57:13.404Z,851.6
2023-02-07T05:58:56.796Z,851.6
2023-02-07T06:00:40.234Z,851.6
2023-02-07T06:05:49.456Z,852.1
2023-02-07T06:07:32.837Z,851.5
2023-02-07T06:09:16.231Z,850.7
2023-02-07T06:10:59.620Z,850.5
2023-02-07T06:12:43.006Z,852
2023-02-07T06:14:26.421Z,855.2
2023-02-07T06:16:09.812Z,856.2
2023-02-07T06:17:53.194Z,855.3
2023-02-07T06:21:19.701Z,851.3
2023-02-07T06:23:03.077Z,851.8
2023-02-07T06:24:46.475Z,852.1
2023-02-07T06:26:29.853Z,851.8
2023-02-07T06:28:13.270Z,852.3
2023-02-07T06:29:56.649Z,853.4
2023-02-07T06:31:40.054Z,855.3
2023-02-07T06:33:23.515Z,853
2023-02-07T06:38:32.694Z,850.1
2023-02-07T06:40:16.195Z,850.2
2023-02-07T06:41:59.486Z,847.2
2023-02-07T06:43:42.898Z,845.1
2023-02-07T06:45:26.270Z,846.3
2023-02-07T06:47:09.664Z,843.5
2023-02-07T06:48:53.071Z,844
2023-02-07T06:50:36.468Z,845.8
2023-02-07T06:52:19.862Z,844.1
2023-02-07T06:55:46.332Z,841.3
2023-02-07T06:57:29.720Z,840
2023-02-07T06:59:13.125Z,841.1
2023-02-07T07:00:56.552Z,840.8
2023-02-07T07:02:39.923Z,839.1
2023-02-07T07:04:23.348Z,836.7
2023-02-07T07:06:06.712Z,834.4
2023-02-07T07:07:50.115Z,832
2023-02-07T07:09:33.507Z,830.8
2023-02-07T07:14:42.746Z,829.4
2023-02-07T07:16:26.160Z,830.5
2023-02-07T07:18:09.536Z,831.7
2023-02-07T07:19:52.946Z,833.6
2023-02-07T07:21:36.346Z,835.4
2023-02-07T07:23:19.732Z,837.6
2023-02-07T07:25:03.112Z,838.2
2023-02-07T07:26:46.522Z,839.3
2023-02-07T07:31:55.910Z,836.6
2023-02-07T07:33:39.376Z,836.6
2023-02-07T07:35:22.712Z,836
2023-02-07T07:37:06.121Z,832.4
2023-02-07T07:38:49.478Z,829.3
2023-02-07T07:40:32.721Z,828.3
2023-02-07T07:42:16.267Z,833.7
2023-02-07T07:43:59.663Z,840.5
2023-02-07T07:45:43.076Z,841.6
2023-02-07T07:50:52.361Z,844.1
2023-02-07T07:52:35.772Z,841.6
2023-02-07T07:54:19.111Z,840.1
2023-02-07T07:56:02.507Z,838.6
2023-02-07T07:57:45.751Z,832.4
2023-02-07T07:59:29.162Z,826.2
2023-02-07T08:01:12.756Z,821.5
2023-02-07T08:02:56.120Z,819.2
2023-02-07T08:08:05.179Z,817.3
2023-02-07T08:09:48.576Z,820.7
2023-02-07T08:11:31.995Z,826.8
2023-02-07T08:13:15.385Z,831.7
2023-02-07T08:14:58.762Z,833.2
2023-02-07T08:16:42.151Z,834.8
2023-02-07T08:18:25.598Z,836.5
2023-02-07T08:20:09.161Z,835.8
2023-02-07T08:21:52.370Z,837.5
2023-02-07T08:23:36.138Z,843.5
2023-02-07T08:25:19.494Z,850.8
2023-02-07T08:27:02.854Z,853.5
2023-02-07T08:28:46.287Z,857.5
2023-02-07T08:30:29.629Z,863.2
2023-02-07T08:32:13.062Z,866.1
2023-02-07T08:33:56.424Z,869.1
2023-02-07T08:35:39.834Z,870.6
2023-02-07T08:40:49.170Z,714.9
2023-02-07T08:42:32.461Z,693
2023-02-07T08:45:59.393Z,689
2023-02-07T08:47:42.837Z,691.1
2023-02-07T08:49:26.205Z,697.8
2023-02-07T08:51:09.445Z,709.6
2023-02-07T08:52:52.997Z,715.6
2023-02-07T08:54:36.410Z,718.7
2023-02-07T08:56:20.078Z,718.1
2023-02-07T08:58:03.378Z,717.2
2023-02-07T08:59:46.836Z,713.3
2023-02-07T09:01:30.253Z,704.3
2023-02-07T09:03:13.636Z,538.5
2023-02-07T09:04:57.054Z,459
2023-02-07T09:06:40.442Z,424.3
2023-02-07T09:08:23.884Z,410.3
2023-02-07T09:13:33.109Z,425.2
2023-02-07T09:15:16.526Z,431.6
2023-02-07T09:16:59.852Z,434
2023-02-07T09:18:43.344Z,436.8
2023-02-07T09:20:26.625Z,442.5
2023-02-07T09:22:10.153Z,451.1
2023-02-07T09:23:53.325Z,462.1
2023-02-07T09:25:36.849Z,474.8
2023-02-07T09:30:46.109Z,492.6
2023-02-07T09:32:29.522Z,497.4
2023-02-07T09:34:12.912Z,502.1
2023-02-07T09:35:56.336Z,505.2
2023-02-07T09:37:39.680Z,507.8
2023-02-07T09:39:23.124Z,513.7
2023-02-07T09:41:06.492Z,522.8
2023-02-07T09:42:49.768Z,527.5
2023-02-07T09:46:16.247Z,533.6
2023-02-07T09:47:59.652Z,536.1
2023-02-07T09:49:43.180Z,538.6
2023-02-07T09:51:26.570Z,542.7
2023-02-07T09:53:09.795Z,546.3
2023-02-07T09:54:53.224Z,545.8
2023-02-07T09:56:36.648Z,548.6
2023-02-07T09:58:20.209Z,549.2
2023-02-07T10:00:03.570Z,550.4
2023-02-07T10:01:47.248Z,551.9
2023-02-07T10:03:30.630Z,552.3
2023-02-07T10:05:14.080Z,555.4
2023-02-07T10:06:57.381Z,555.1
2023-02-07T10:08:40.691Z,556.3
2023-02-07T10:10:24.214Z,556.8
2023-02-07T10:12:07.600Z,558.3
2023-02-07T10:13:51.026Z,563.3
2023-02-07T10:19:00.196Z,585.4
2023-02-07T10:20:43.593Z,592.1
2023-02-07T10:22:27.023Z,595
2023-02-07T10:24:10.481Z,594.6
2023-02-07T10:25:53.817Z,592.5
2023-02-07T10:27:37.271Z,594.2
2023-02-07T10:29:20.635Z,596.7
2023-02-07T10:31:03.904Z,601.2
2023-02-07T10:32:47.435Z,606.1
2023-02-07T10:34:31.015Z,609
2023-02-07T10:36:14.599Z,608.6
2023-02-07T10:37:57.938Z,608.6
2023-02-07T10:39:41.358Z,609.3
2023-02-07T10:41:24.742Z,608.4
2023-02-07T10:43:08.091Z,610.2
2023-02-07T10:44:51.350Z,612.4
2023-02-07T10:46:34.923Z,611.4
2023-02-07T10:48:18.337Z,611.5
2023-02-07T10:50:01.838Z,613.1
2023-02-07T10:51:45.416Z,614.8
2023-02-07T10:53:28.833Z,614.5
2023-02-07T10:55:12.174Z,613.7
2023-02-07T10:56:55.604Z,614.6
2023-02-07T10:58:38.993Z,613.3
2023-02-07T11:00:22.384Z,613.4
2023-02-07T11:02:05.784Z,612.3
2023-02-07T11:07:14.851Z,611.2
2023-02-07T11:08:58.396Z,617.7
2023-02-07T11:10:41.782Z,624
2023-02-07T11:12:25.190Z,629.5
2023-02-07T11:14:08.440Z,636.2
2023-02-07T11:15:51.933Z,641.6
2023-02-07T11:17:35.475Z,647.8
2023-02-07T11:19:18.807Z,651.2
2023-02-07T11:22:45.094Z,661.2
2023-02-07T11:24:28.665Z,666.5
2023-02-07T11:26:12.052Z,670.7
2023-02-07T11:27:55.522Z,679.7
2023-02-07T11:29:38.863Z,689.6
2023-02-07T11:31:22.214Z,702.8
2023-02-07T11:33:05.650Z,720.7
2023-02-07T11:34:49.106Z,732.7
2023-02-07T11:39:58.123Z,758.4
2023-02-07T11:41:41.680Z,762.7
2023-02-07T11:43:25.149Z,771.8
2023-02-07T11:45:08.410Z,771.8
2023-02-07T11:46:51.696Z,768.3
2023-02-07T11:48:35.342Z,765.5
2023-02-07T11:50:18.584Z,770.3
2023-02-07T11:52:02.057Z,776
2023-02-07T11:55:28.509Z,789.6
2023-02-07T11:57:11.954Z,795.5
2023-02-07T11:58:55.257Z,800
2023-02-07T12:00:38.701Z,798.2
2023-02-07T12:02:22.117Z,793.8
2023-02-07T12:04:05.525Z,789.1
2023-02-07T12:05:48.797Z,789.3
2023-02-07T12:07:32.152Z,786.3
2023-02-07T12:12:41.561Z,784.1
2023-02-07T12:14:24.959Z,781.6
2023-02-07T12:16:08.285Z,779.6
2023-02-07T12:17:51.751Z,778.8
2023-02-07T12:19:35.128Z,780.1
2023-02-07T12:21:18.524Z,779.1
2023-02-07T12:23:01.994Z,778.6
2023-02-07T12:24:45.157Z,776.7
2023-02-07T12:29:54.600Z,763.3
2023-02-07T12:31:37.962Z,756.7
2023-02-07T12:33:21.342Z,750.7
2023-02-07T12:35:04.748Z,748.6
2023-02-07T12:36:48.159Z,746.3
2023-02-07T12:38:31.495Z,743.4
2023-02-07T12:40:14.792Z,741.8
2023-02-07T12:41:58.368Z,743.8
2023-02-07T12:47:07.563Z,737.3
2023-02-07T12:48:51.005Z,735
2023-02-07T12:50:34.256Z,733.5
2023-02-07T12:52:17.773Z,731.1
2023-02-07T12:54:01.008Z,732.5
2023-02-07T12:55:44.546Z,734.1
2023-02-07T12:57:27.907Z,739.2
2023-02-07T12:59:11.399Z,771.4
2023-02-07T13:00:54.721Z,783.2
2023-02-07T13:04:21.269Z,783.6
2023-02-07T13:06:04.628Z,787.5
2023-02-07T13:07:48.008Z,793.7
2023-02-07T13:09:31.244Z,799.3
2023-02-07T13:11:14.801Z,806.6
2023-02-07T13:12:58.048Z,811.4
2023-02-07T13:14:41.595Z,815.3
2023-02-07T13:16:24.831Z,817.6
2023-02-07T13:18:08.376Z,821
2023-02-07T13:21:34.877Z,846.7
2023-02-07T13:23:18.200Z,893.3
2023-02-07T13:25:01.668Z,919.5
2023-02-07T13:26:44.903Z,911.8
2023-02-07T13:28:28.444Z,911.7
2023-02-07T13:30:11.815Z,915.6
2023-02-07T13:31:55.238Z,910.1
2023-02-07T13:33:38.581Z,903.2
2023-02-07T13:35:22.048Z,900
2023-02-07T13:38:48.530Z,895.2
2023-02-07T13:40:31.861Z,888.6
2023-02-07T13:42:15.336Z,882.1
2023-02-07T13:43:58.553Z,874.5
2023-02-07T13:45:42.098Z,866.6
2023-02-07T13:47:25.473Z,858.8
2023-02-07T13:49:08.879Z,852.7
2023-02-07T13:50:52.326Z,844.1
2023-02-07T13:52:35.679Z,840.2
2023-02-07T13:56:02.168Z,832.4
2023-02-07T13:57:45.392Z,827.3
2023-02-07T13:59:28.810Z,823.7
2023-02-07T14:01:12.444Z,818.6
2023-02-07T14:02:55.833Z,817.7
2023-02-07T14:04:38.985Z,819
2023-02-07T14:06:22.628Z,822.4
2023-02-07T14:08:05.863Z,828.1
2023-02-07T14:13:15.201Z,841.7
2023-02-07T14:14:58.419Z,848.4
2023-02-07T14:16:41.983Z,852.5
2023-02-07T14:18:25.367Z,854
2023-02-07T14:20:08.720Z,860.6
2023-02-07T14:21:52.112Z,864.4
2023-02-07T14:23:35.495Z,868.5
2023-02-07T14:25:18.959Z,869.2
2023-02-07T14:28:45.441Z,866.2
2023-02-07T14:30:28.780Z,866.8
2023-02-07T14:32:12.221Z,873.4
2023-02-07T14:33:55.618Z,880.2
2023-02-07T14:35:39.046Z,887.1
2023-02-07T14:37:22.415Z,896.3
2023-02-07T14:39:05.786Z,902.4
2023-02-07T14:40:49.258Z,912.7
2023-02-07T14:45:58.370Z,937.3
2023-02-07T14:47:41.669Z,943.5
2023-02-07T14:49:25.054Z,947.6
2023-02-07T14:51:08.562Z,948.5
2023-02-07T14:52:51.979Z,948.6
2023-02-07T14:54:35.286Z,950.4
2023-02-07T14:56:18.716Z,960.6
2023-02-07T14:58:02.177Z,962.5
2023-02-07T15:03:11.303Z,991.5
2023-02-07T15:04:54.707Z,1012.6
2023-02-07T15:06:38.277Z,1049.4
2023-02-07T15:08:21.576Z,1050.8
2023-02-07T15:10:04.873Z,1092.8
2023-02-07T15:11:48.445Z,1055.5
2023-02-07T15:13:31.882Z,1075.4
2023-02-07T15:15:15.228Z,940.4
2023-02-07T15:17:01.548Z,1249.3
2023-02-07T15:18:44.940Z,1087.4
2023-02-07T15:20:28.364Z,1125.1
2023-02-07T15:22:11.753Z,1069.7
2023-02-07T15:23:55.093Z,1056.7
2023-02-07T15:25:38.565Z,1051.7
2023-02-07T15:27:21.799Z,1041.5
2023-02-07T15:32:31.187Z,1065.6
2023-02-07T15:34:14.621Z,1109
2023-02-07T15:35:57.981Z,1124.5
2023-02-07T15:37:41.253Z,1135.6
2023-02-07T15:39:24.768Z,1144.8
2023-02-07T15:41:08.001Z,1155.1
2023-02-07T15:42:51.556Z,1161
2023-02-07T15:44:34.912Z,1167.6
2023-02-07T15:48:01.291Z,1175.8
2023-02-07T15:49:44.870Z,1182
2023-02-07T15:51:28.200Z,1196.2
2023-02-07T15:53:11.643Z,1195.7
2023-02-07T15:54:55.055Z,1187.4
2023-02-07T15:56:38.266Z,1165.6
2023-02-07T15:58:21.781Z,1120.5
2023-02-07T16:00:05.154Z,1124.4
2023-02-07T16:01:48.615Z,1134.2
2023-02-07T16:05:15.091Z,1165.1
2023-02-07T16:06:58.510Z,1171.4
2023-02-07T16:08:41.901Z,1177.6
2023-02-07T16:10:25.309Z,1168.6
2023-02-07T16:12:08.677Z,1175.8
2023-02-07T16:13:52.048Z,1190.4
2023-02-07T16:15:35.460Z,1192.3
2023-02-07T16:17:18.872Z,1190.2
2023-02-07T16:22:27.936Z,1123.3
2023-02-07T16:24:11.524Z,1129.7
2023-02-07T16:25:54.903Z,1133.5
2023-02-07T16:27:38.289Z,1132.3
2023-02-07T16:29:21.706Z,1132.1
2023-02-07T16:31:05.140Z,1133.3
2023-02-07T16:32:48.501Z,1133.3
2023-02-07T16:34:31.932Z,1131.5
2023-02-07T16:36:15.243Z,1126.3
2023-02-07T16:39:41.669Z,1117.9
2023-02-07T16:41:25.124Z,1113.5
2023-02-07T16:43:08.555Z,1114.4
2023-02-07T16:44:51.925Z,1116.4
2023-02-07T16:46:35.310Z,1116.1
2023-02-07T16:48:18.635Z,1115.8
2023-02-07T16:50:02.084Z,1114.6
2023-02-07T16:51:45.517Z,1113.8
2023-02-07T16:53:28.770Z,1115.4
2023-02-07T16:56:55.445Z,1114
2023-02-07T16:58:38.794Z,1112.7
2023-02-07T17:00:22.159Z,1113.2
2023-02-07T17:02:05.591Z,1109.2
2023-02-07T17:03:48.802Z,1107
2023-02-07T17:05:32.407Z,1107
2023-02-07T17:07:15.800Z,1105.3
2023-02-07T17:08:58.995Z,1104.3
2023-02-07T17:10:42.471Z,1105
2023-02-07T17:14:08.870Z,1103
2023-02-07T17:15:52.387Z,1105
2023-02-07T17:17:35.775Z,1108.6
2023-02-07T17:19:19.249Z,1111.7
2023-02-07T17:21:02.681Z,1114.7
2023-02-07T17:22:45.968Z,1115.6
2023-02-07T17:24:29.441Z,1119.6
2023-02-07T17:26:12.735Z,1123.6
2023-02-07T17:27:56.216Z,1124.6
2023-02-07T17:31:22.503Z,1127
2023-02-07T17:33:05.974Z,1124.1
2023-02-07T17:34:49.496Z,1125.3
2023-02-07T17:36:32.689Z,1122.8
2023-02-07T17:38:16.297Z,1122.1
2023-02-07T17:39:59.644Z,1122.5
2023-02-07T17:41:43.040Z,1120.5
2023-02-07T17:43:26.503Z,1120.8
2023-02-07T17:45:09.833Z,1121.1
2023-02-07T17:48:36.142Z,1114.1
2023-02-07T17:50:19.730Z,1115
2023-02-07T17:52:02.979Z,1114.3
2023-02-07T17:53:46.502Z,1114.1
2023-02-07T17:55:29.808Z,1107.1
2023-02-07T17:57:13.276Z,1102.2
2023-02-07T17:58:56.695Z,1102.3
2023-02-07T18:00:39.931Z,1099.3
2023-02-07T18:05:49.380Z,1105.6
2023-02-07T18:07:32.795Z,1110.1
2023-02-07T18:09:16.034Z,1114.3
2023-02-07T18:10:59.518Z,1113.1
2023-02-07T18:12:42.934Z,1109.2
2023-02-07T18:14:26.311Z,1104.4
2023-02-07T18:16:09.736Z,1101.6
2023-02-07T18:17:52.930Z,1097
2023-02-07T18:21:19.526Z,1098.7
2023-02-07T18:23:02.999Z,1106.2
2023-02-07T18:24:46.340Z,1110.8
2023-02-07T18:26:29.581Z,1116.8
2023-02-07T18:28:13.033Z,1116.8
2023-02-07T18:29:56.614Z,1119.6
2023-02-07T18:31:39.772Z,1127.4
2023-02-07T18:33:23.363Z,1134.2
2023-02-07T18:35:06.770Z,1136.8
2023-02-07T18:36:50.271Z,1133.8
2023-02-07T18:38:33.847Z,1130.2
2023-02-07T18:40:17.258Z,1128.3
2023-02-07T18:42:00.480Z,1121.2
2023-02-07T18:43:44.082Z,1110
2023-02-07T18:45:27.450Z,1104.2
2023-02-07T18:47:10.845Z,1099.4
2023-02-07T18:48:54.181Z,1092.1
2023-02-07T18:54:03.289Z,1080
2023-02-07T18:55:46.850Z,1077.1
2023-02-07T18:57:30.267Z,1071.3
2023-02-07T18:59:13.622Z,1066.3
2023-02-07T19:00:56.880Z,1065.2
2023-02-07T19:02:40.410Z,1064.1
2023-02-07T19:04:23.851Z,1059.1
2023-02-07T19:06:07.265Z,1060.1
2023-02-07T19:11:16.441Z,1051.3
2023-02-07T19:12:59.888Z,1051.1
2023-02-07T19:14:43.258Z,1052.1
2023-02-07T19:16:26.742Z,1051.7
2023-02-07T19:18:10.068Z,1045.5
2023-02-07T19:19:53.425Z,1041.1
2023-02-07T19:21:36.870Z,1038.4
2023-02-07T19:23:20.080Z,1037.3
2023-02-07T19:28:29.437Z,1034.4
2023-02-07T19:30:12.886Z,1037.6
2023-02-07T19:31:56.120Z,1040.6
2023-02-07T19:33:39.564Z,1039.7
2023-02-07T19:35:22.987Z,1043
2023-02-07T19:37:06.419Z,1044.5
2023-02-07T19:38:49.851Z,1045.8
2023-02-07T19:40:33.227Z,1039.7
2023-02-07T19:42:16.641Z,1034.7
2023-02-07T19:44:00.318Z,1031.3
2023-02-07T19:45:43.778Z,1028.1
2023-02-07T19:47:27.192Z,1028.5
2023-02-07T19:49:10.533Z,1029.3
2023-02-07T19:50:53.777Z,1031.5
2023-02-07T19:52:37.330Z,1033.8
2023-02-07T19:54:20.708Z,1038.7
2023-02-07T19:56:03.984Z,1039.2
2023-02-07T19:57:47.518Z,1036.6
2023-02-07T20:01:13.942Z,1035.7
2023-02-07T20:02:57.359Z,1035.8
2023-02-07T20:04:40.642Z,1031.6
2023-02-07T20:06:24.076Z,1029.4
2023-02-07T20:08:07.591Z,1026.7
2023-02-07T20:09:50.893Z,1025.1
2023-02-07T20:11:34.463Z,1024.5
2023-02-07T20:13:17.719Z,1027.8
2023-02-07T20:15:01.065Z,1034.6
2023-02-07T20:16:44.934Z,1038.7
2023-02-07T20:18:28.234Z,1043.8
2023-02-07T20:20:11.635Z,1055.6
2023-02-07T20:21:54.921Z,1063.7
2023-02-07T20:23:38.457Z,1070.2
2023-02-07T20:25:21.821Z,1075.7
2023-02-07T20:27:05.085Z,1079.5
2023-02-07T20:28:48.484Z,1081.1
2023-02-07T20:30:32.092Z,1076.4
2023-02-07T20:33:58.532Z,1065.2
2023-02-07T20:35:41.926Z,1063.6
2023-02-07T20:37:25.153Z,1063.5
2023-02-07T20:39:08.704Z,1062.5
2023-02-07T20:40:52.089Z,1062.6
2023-02-07T20:42:35.516Z,1059.4
2023-02-07T20:44:18.749Z,1056.1
2023-02-07T20:46:02.158Z,1053.5
2023-02-07T20:47:45.692Z,1052
2023-02-07T20:51:12.134Z,1052
2023-02-07T20:52:55.443Z,1054.2
2023-02-07T20:54:38.800Z,1054.3
2023-02-07T20:56:22.186Z,1053.6
2023-02-07T20:58:05.780Z,1055.1
2023-02-07T20:59:48.997Z,1059.3
2023-02-07T21:01:32.546Z,1062.2
2023-02-07T21:03:15.946Z,1061.7
2023-02-07T21:04:59.216Z,1065.3
2023-02-07T21:06:42.878Z,1066
2023-02-07T21:08:26.341Z,1061.8
2023-02-07T21:10:09.680Z,1059.1
2023-02-07T21:11:53.097Z,1058
2023-02-07T21:13:36.529Z,1060
2023-02-07T21:15:19.978Z,1064.1
2023-02-07T21:17:03.439Z,1070.5
2023-02-07T21:18:46.770Z,1076.6
2023-02-07T21:20:30.047Z,1078.8
2023-02-07T21:23:56.687Z,1068.2
2023-02-07T21:25:40.016Z,1057.3
2023-02-07T21:27:23.369Z,1043
2023-02-07T21:29:06.777Z,1031.4
2023-02-07T21:30:50.208Z,1029.2
2023-02-07T21:32:33.719Z,1032.3
2023-02-07T21:34:16.992Z,1034.5
2023-02-07T21:36:00.444Z,1039.2
2023-02-07T21:37:43.684Z,1042
2023-02-07T21:39:27.574Z,1042.1
2023-02-07T21:41:10.793Z,1041.3
2023-02-07T21:42:54.319Z,1038.5
2023-02-07T21:44:37.570Z,1033.8
2023-02-07T21:46:20.990Z,1028.5
2023-02-07T21:48:04.391Z,1024.5
2023-02-07T21:49:47.940Z,1022.1
2023-02-07T21:51:31.174Z,1017.7
2023-02-07T21:53:14.739Z,1018.2
2023-02-07T21:58:23.960Z,1017.9
2023-02-07T22:00:07.211Z,1013.2
2023-02-07T22:01:50.764Z,1013.4
2023-02-07T22:03:33.997Z,1015
2023-02-07T22:05:17.402Z,1012.7
2023-02-07T22:07:00.783Z,1010.5
2023-02-07T22:08:44.326Z,1010.6
2023-02-07T22:10:27.709Z,1012.1
2023-02-07T22:15:36.985Z,1012.4
2023-02-07T22:17:20.410Z,1007.7
2023-02-07T22:19:03.757Z,1008
2023-02-07T22:22:30.546Z,1003.7
2023-02-07T22:24:14.010Z,1004.6
2023-02-07T22:25:57.305Z,1003.5
2023-02-07T22:27:40.643Z,1001.2
2023-02-07T22:31:07.168Z,1000
2023-02-07T22:32:50.657Z,1001.2
2023-02-07T22:34:33.863Z,999.8
2023-02-07T22:36:17.386Z,1002.5
2023-02-07T22:38:00.800Z,1004.8
2023-02-07T22:39:44.116Z,1005.3
2023-02-07T22:41:27.434Z,1005.4
2023-02-07T22:43:10.983Z,1001.8
2023-02-07T22:44:54.222Z,1001.3
2023-02-07T22:46:37.940Z,1001.6
2023-02-07T22:48:21.405Z,1001.7
2023-02-07T22:50:04.736Z,1002.7
2023-02-07T22:51:48.287Z,1001.2
2023-02-07T22:53:31.690Z,998.6
2023-02-07T22:55:15.099Z,997.8
2023-02-07T22:56:58.442Z,1000.3
2023-02-07T22:58:41.782Z,1006.6
2023-02-07T23:00:25.242Z,1012.6
2023-02-07T23:03:51.727Z,1023.8
2023-02-07T23:05:34.976Z,1025.1
2023-02-07T23:07:18.529Z,1025.4
2023-02-07T23:09:01.771Z,1024.4
2023-02-07T23:10:45.333Z,1024.3
2023-02-07T23:12:28.572Z,1045.2
2023-02-07T23:14:12.080Z,1153.4
2023-02-07T23:16:00.240Z,1681.5
2023-02-07T23:17:43.722Z,1641.7
2023-02-07T23:19:27.117Z,791.2
2023-02-07T23:21:10.517Z,1016.2
2023-02-07T23:22:53.902Z,1496.6
2023-02-07T23:24:37.259Z,1102.6
2023-02-07T23:26:20.524Z,1010.7
2023-02-07T23:29:46.977Z,999.1
2023-02-07T23:31:30.457Z,823.7
2023-02-07T23:33:13.977Z,935.5
2023-02-07T23:34:57.323Z,984.4
2023-02-07T23:36:40.717Z,984.8
2023-02-07T23:38:24.162Z,986.3
2023-02-07T23:40:07.366Z,989.4
2023-02-07T23:41:50.747Z,991.8
2023-02-07T23:47:00.156Z,989.5
2023-02-07T23:48:43.566Z,988.7
2023-02-07T23:50:26.899Z,986.4
2023-02-07T23:52:10.292Z,980.3
2023-02-07T23:53:53.759Z,978.5
2023-02-07T23:55:37.142Z,976.1
2023-02-07T23:57:20.371Z,959.5
2023-02-07T23:59:03.783Z,899.1
